Aviation Digital Data Service (ADDS)

Output produced by METARs form (1920 UTC 18 June 2019)
found at http://www.aviationweather.gov/metar/data/
 
SVBM 181727Z 09009KT 9000 VCSH BKN016 27/20 Q1016
SVMI 181507Z 09004KT 9999 FEW016 28/22 Q1012
SVMG 181900Z /////KT 9999 SCT010 32/22 Q1012 NOSIG
TAF SVVA 181030Z 1812/1912 09004KT 9999 SCT016 SCT100 TX33/1820 TN23/1910 
     BECMG 1816/1820 9999 BKN016 
     TEMPO 1900/1904 25006KT 9000 TSDZ FEW013CB BKN016